Time;durP1;ratioP1;P1;durP2;ratioP2;P2;SDS_P1;SDS_P2;PMS_P1;PMS_P2;Temp;Humidity;BMP_temperature;BMP_pressure;BME280_temperature;BME280_humidity;BME280_pressure;Samples;Min_cycle;Max_cycle;Signal;HPM_P1;HPM_P2
2022/08/03 00:00:47;;;;;;;10.05;9.55;;;;;;;-143.83;100.00;62900.06;5114935;28;20082;-64
2022/08/03 00:03:12;;;;;;;10.20;9.70;;;;;;;-143.83;100.00;62900.06;5114689;28;20031;-65
2022/08/03 00:05:38;;;;;;;9.93;9.43;;;;;;;-143.83;100.00;62900.06;5108824;27;20033;-65
2022/08/03 00:08:04;;;;;;;10.10;9.60;;;;;;;-143.83;100.00;62900.06;5114868;28;20027;-65
2022/08/03 00:10:30;;;;;;;9.77;9.27;;;;;;;-143.83;100.00;62900.06;5114844;28;20016;-65
2022/08/03 00:12:55;;;;;;;10.30;9.80;;;;;;;-143.83;100.00;62900.06;5114761;28;20081;-64
2022/08/03 00:15:21;;;;;;;10.07;9.57;;;;;;;-143.83;100.00;62900.06;5114757;28;20054;-65
2022/08/03 00:17:46;;;;;;;9.60;9.20;;;;;;;-143.83;100.00;62900.06;5114684;28;20054;-65
2022/08/03 00:20:12;;;;;;;10.25;9.75;;;;;;;-143.83;100.00;62900.06;5114767;28;20531;-65
2022/08/03 00:22:37;;;;;;;10.40;9.90;;;;;;;-143.83;100.00;62900.06;5108414;27;20028;-65
2022/08/03 00:25:03;;;;;;;9.75;9.32;;;;;;;-143.83;100.00;62900.06;5115714;27;20023;-64
2022/08/03 00:27:29;;;;;;;10.07;9.57;;;;;;;-143.83;100.00;62900.06;5114503;28;20031;-66
2022/08/03 00:29:54;;;;;;;10.27;9.77;;;;;;;-143.83;100.00;62900.06;5114539;28;20437;-64
2022/08/03 00:32:20;;;;;;;10.10;9.60;;;;;;;-143.83;100.00;62900.06;5114336;28;20015;-64
2022/08/03 00:34:45;;;;;;;10.00;9.50;;;;;;;-143.83;100.00;62900.06;5113759;28;20027;-65
2022/08/03 00:37:11;;;;;;;10.05;9.55;;;;;;;-143.83;100.00;62900.06;5113610;28;20023;-64
2022/08/03 00:39:36;;;;;;;10.07;9.57;;;;;;;-143.83;100.00;62900.06;5113997;27;20061;-65
2022/08/03 00:42:05;;;;;;;9.60;9.20;;;;;;;-143.83;100.00;62900.06;5114107;28;20764;-65
2022/08/03 00:44:31;;;;;;;9.98;9.50;;;;;;;-143.83;100.00;62900.06;5114148;28;20043;-65
2022/08/03 00:46:56;;;;;;;9.90;9.40;;;;;;;-143.83;100.00;62900.06;5114237;28;20530;-64
2022/08/03 00:49:23;;;;;;;10.00;9.50;;;;;;;-143.83;100.00;62900.06;5111568;28;20098;-64
2022/08/03 00:51:48;;;;;;;10.10;9.60;;;;;;;-143.83;100.00;62900.06;5114063;28;20042;-64
2022/08/03 00:54:14;;;;;;;10.30;9.80;;;;;;;-143.83;100.00;62900.06;5114084;28;20028;-65
2022/08/03 00:56:41;;;;;;;10.15;9.65;;;;;;;-143.83;100.00;62900.06;5119599;27;20023;-65
2022/08/03 00:59:09;;;;;;;10.02;9.52;;;;;;;-143.83;100.00;62900.06;5110979;28;20023;-65
2022/08/03 01:01:35;;;;;;;10.15;9.65;;;;;;;-143.83;100.00;62900.06;5113712;28;20470;-65
2022/08/03 01:04:00;;;;;;;10.65;10.10;;;;;;;-143.83;100.00;62900.06;5113625;28;20152;-65
2022/08/03 01:06:55;;;;;;;10.32;9.82;;;;;;;-143.83;100.00;62900.06;5112995;27;20156;-64
2022/08/03 01:09:20;;;;;;;10.10;9.60;;;;;;;-143.83;100.00;62900.06;5096694;28;20041;-65
2022/08/03 01:12:00;;;;;;;10.35;9.85;;;;;;;-143.83;100.00;62900.06;5109406;28;20020;-65
2022/08/03 01:14:50;;;;;;;11.10;10.50;;;;;;;-143.83;100.00;62900.06;5114191;27;20032;-65
2022/08/03 01:17:24;;;;;;;10.70;10.20;;;;;;;-143.83;100.00;62900.06;5112918;28;20023;-65
2022/08/03 01:19:50;;;;;;;;;;;;;;;-143.83;100.00;62900.06;5113605;28;20023;-64
2022/08/03 01:22:50;;;;;;;10.48;9.98;;;;;;;-143.83;100.00;62900.06;5114720;27;20005;-63
2022/08/03 01:25:16;;;;;;;10.20;9.70;;;;;;;-143.83;100.00;62900.06;5101822;28;20083;-65
2022/08/03 01:27:51;;;;;;;10.05;9.55;;;;;;;-143.83;100.00;62900.06;5113472;28;20402;-65
2022/08/03 01:30:17;;;;;;;10.00;9.50;;;;;;;-143.83;100.00;62900.06;5118596;27;20098;-64
2022/08/03 01:32:49;;;;;;;9.60;9.20;;;;;;;-143.83;100.00;62900.06;5112340;28;20036;-64
2022/08/03 01:35:20;;;;;;;10.20;9.70;;;;;;;-143.83;100.00;62900.06;5112037;28;20027;-64
2022/08/03 01:37:54;;;;;;;9.80;9.30;;;;;;;-143.83;100.00;62900.06;5100855;28;20502;-65
2022/08/03 01:40:23;;;;;;;10.20;9.70;;;;;;;-143.83;100.00;62900.06;5099651;28;20421;-64
2022/08/03 01:42:50;;;;;;;10.07;9.57;;;;;;;-143.83;100.00;62900.06;5111929;28;20047;-64
2022/08/03 01:45:17;;;;;;;10.18;9.68;;;;;;;-143.83;100.00;62900.06;5113434;28;20023;-65
2022/08/03 01:47:45;;;;;;;10.20;9.70;;;;;;;-143.83;100.00;62900.06;5113365;27;20027;-64
2022/08/03 01:50:12;;;;;;;10.20;9.70;;;;;;;-143.83;100.00;62900.06;5112651;28;20015;-64
2022/08/03 01:52:43;;;;;;;10.13;9.63;;;;;;;-143.83;100.00;62900.06;5112717;28;20027;-64
2022/08/03 01:55:10;;;;;;;10.10;9.60;;;;;;;-143.83;100.00;62900.06;5112633;28;20478;-64
2022/08/03 01:57:38;;;;;;;9.73;9.23;;;;;;;-143.83;100.00;62900.06;5112722;28;20402;-65
2022/08/03 02:00:08;;;;;;;10.25;9.75;;;;;;;-143.83;100.00;62900.06;5112456;28;20026;-66
2022/08/03 02:02:35;;;;;;;10.10;9.60;;;;;;;-143.83;100.00;62900.06;5110117;28;20114;-65
2022/08/03 02:05:05;;;;;;;10.00;9.50;;;;;;;-143.83;100.00;62900.06;5116241;27;20038;-64
2022/08/03 02:07:33;;;;;;;10.10;9.60;;;;;;;-143.83;100.00;62900.06;5112501;28;20502;-64
2022/08/03 02:10:01;;;;;;;9.93;9.43;;;;;;;-143.83;100.00;62900.06;5112550;28;20028;-64
2022/08/03 02:12:28;;;;;;;9.52;9.13;;;;;;;-143.83;100.00;62900.06;5112252;28;20023;-64
2022/08/03 02:14:56;;;;;;;10.20;9.70;;;;;;;-143.83;100.00;62900.06;5112032;28;20020;-65
2022/08/03 02:17:23;;;;;;;10.30;9.80;;;;;;;-143.83;100.00;62900.06;5113652;28;20487;-65
2022/08/03 02:19:51;;;;;;;10.43;9.93;;;;;;;-143.83;100.00;62900.06;5121865;27;20035;-65
2022/08/03 02:22:17;;;;;;;10.00;9.50;;;;;;;-143.83;100.00;62900.06;5113105;28;20394;-64
2022/08/03 02:24:43;;;;;;;10.07;9.57;;;;;;;-143.83;100.00;62900.06;5112623;28;20098;-65
2022/08/03 02:27:32;;;;;;;10.20;9.70;;;;;;;-143.83;100.00;62900.06;5112305;28;20470;-64
2022/08/03 02:30:05;;;;;;;10.30;9.80;;;;;;;-143.83;100.00;62900.06;5112112;28;20024;-64
2022/08/03 02:32:35;;;;;;;10.13;9.63;;;;;;;-143.83;100.00;62900.06;5112306;28;20023;-64
2022/08/03 02:35:02;;;;;;;10.10;9.60;;;;;;;-143.83;100.00;62900.06;5112093;28;20102;-64
2022/08/03 02:37:34;;;;;;;10.50;10.00;;;;;;;-143.83;100.00;62900.06;5105912;28;20031;-64
2022/08/03 02:40:06;;;;;;;10.38;9.88;;;;;;;-143.83;100.00;62900.06;5111885;28;20505;-64
2022/08/03 02:42:34;;;;;;;10.05;9.55;;;;;;;-143.83;100.00;62900.06;5111941;28;20054;-65
2022/08/03 02:45:05;;;;;;;9.85;9.35;;;;;;;-143.83;100.00;62900.06;5112342;28;20038;-64
2022/08/03 02:47:33;;;;;;;10.10;9.60;;;;;;;-143.83;100.00;62900.06;5111989;28;20015;-64
2022/08/03 02:50:00;;;;;;;9.90;9.40;;;;;;;-143.83;100.00;62900.06;5110043;28;20102;-65
2022/08/03 02:52:28;;;;;;;10.00;9.50;;;;;;;-143.83;100.00;62900.06;5112404;28;20027;-65
2022/08/03 02:54:58;;;;;;;10.40;9.90;;;;;;;-143.83;100.00;62900.06;5111551;28;20027;-66
2022/08/03 02:57:26;;;;;;;10.30;9.80;;;;;;;-143.83;100.00;62900.06;5112832;28;20066;-65
2022/08/03 02:59:54;;;;;;;10.68;10.15;;;;;;;-143.83;100.00;62900.06;5112436;28;20058;-65
2022/08/03 03:02:20;;;;;;;10.43;9.93;;;;;;;-143.83;100.00;62900.06;5112592;28;20065;-65
2022/08/03 03:04:49;;;;;;;10.00;9.50;;;;;;;-143.83;100.00;62900.06;5112727;28;20108;-64
2022/08/03 03:07:16;;;;;;;10.90;10.30;;;;;;;-143.83;100.00;62900.06;5112312;28;20478;-64
2022/08/03 03:09:42;;;;;;;10.10;9.60;;;;;;;-143.83;100.00;62900.06;5112233;28;20027;-65
2022/08/03 03:12:10;;;;;;;10.15;9.65;;;;;;;-143.83;100.00;62900.06;5111415;28;20024;-64
2022/08/03 03:14:36;;;;;;;9.70;9.30;;;;;;;-143.83;100.00;62900.06;5113094;28;20032;-65
2022/08/03 03:17:03;;;;;;;9.90;9.40;;;;;;;-143.83;100.00;62900.06;5112052;28;20031;-65
2022/08/03 03:19:31;;;;;;;9.77;9.27;;;;;;;-143.83;100.00;62900.06;5111665;28;20482;-65
2022/08/03 03:21:59;;;;;;;10.20;9.70;;;;;;;-143.83;100.00;62900.06;5111506;28;20475;-65
2022/08/03 03:24:26;;;;;;;9.80;9.30;;;;;;;-143.83;100.00;62900.06;5111671;28;20042;-65
2022/08/03 03:26:52;;;;;;;10.02;9.52;;;;;;;-143.83;100.00;62900.06;5111991;28;20501;-65
2022/08/03 03:29:18;;;;;;;10.15;9.65;;;;;;;-143.83;100.00;62900.06;5109421;28;20039;-65
2022/08/03 03:31:44;;;;;;;9.55;9.15;;;;;;;-143.83;100.00;62900.06;5114121;28;20027;-65
2022/08/03 03:34:10;;;;;;;9.43;9.02;;;;;;;-143.83;100.00;62900.06;5113826;28;20023;-65
2022/08/03 03:36:36;;;;;;;10.07;9.57;;;;;;;-143.83;100.00;62900.06;5115426;28;20027;-65
2022/08/03 03:39:01;;;;;;;10.50;10.00;;;;;;;-143.83;100.00;62900.06;5115398;28;20058;-65
2022/08/03 03:41:27;;;;;;;10.25;9.75;;;;;;;-143.83;100.00;62900.06;5115308;28;20031;-65
2022/08/03 03:43:53;;;;;;;9.82;9.38;;;;;;;-143.83;100.00;62900.06;5115083;28;20546;-65
2022/08/03 03:46:18;;;;;;;9.85;9.35;;;;;;;-143.83;100.00;62900.06;5119352;27;20033;-63
2022/08/03 03:48:44;;;;;;;9.40;9.00;;;;;;;-143.83;100.00;62900.06;5118735;27;20015;-65
2022/08/03 03:51:10;;;;;;;9.27;8.88;;;;;;;-143.83;100.00;62900.06;5115019;28;20024;-64
2022/08/03 03:53:36;;;;;;;9.77;9.38;;;;;;;-143.83;100.00;62900.06;5115161;28;20107;-65
2022/08/03 03:56:01;;;;;;;9.40;9.00;;;;;;;-143.83;100.00;62900.06;5115331;28;20546;-64
2022/08/03 03:58:27;;;;;;;8.95;8.55;;;;;;;-143.83;100.00;62900.06;5104937;28;20095;-64
2022/08/03 04:00:52;;;;;;;9.60;9.20;;;;;;;-143.83;100.00;62900.06;5107794;28;20028;-65
2022/08/03 04:03:18;;;;;;;9.38;8.98;;;;;;;-143.83;100.00;62900.06;5108460;27;20042;-65
2022/08/03 04:11:33;;;;;;;8.70;8.30;;;;;;;-143.83;100.00;62900.06;5110876;27;20039;-66
2022/08/03 04:14:24;;;;;;;8.70;8.30;;;;;;;-143.83;100.00;62900.06;5114953;28;20031;-65
2022/08/03 04:16:56;;;;;;;8.68;8.27;;;;;;;-143.83;100.00;62900.06;5102870;28;20021;-64
2022/08/03 04:19:49;;;;;;;8.77;8.38;;;;;;;-143.83;100.00;62900.06;5108954;27;20162;-65
2022/08/03 04:22:19;;;;;;;8.57;8.18;;;;;;;-143.83;100.00;62900.06;5113921;28;20395;-66
2022/08/03 04:25:09;;;;;;;8.75;8.35;;;;;;;-143.83;100.00;62900.06;5114508;28;20039;-65
2022/08/03 04:27:38;;;;;;;8.50;8.10;;;;;;;-143.83;100.00;62900.06;5102927;28;20512;-66
2022/08/03 04:30:05;;;;;;;8.52;8.13;;;;;;;-143.83;100.00;62900.06;5105944;28;20035;-65
2022/08/03 04:32:32;;;;;;;8.30;7.97;;;;;;;-143.83;100.00;62900.06;5114357;28;20015;-66
2022/08/03 04:34:58;;;;;;;8.60;8.20;;;;;;;-143.83;100.00;62900.06;5113871;28;20061;-66
2022/08/03 04:37:46;;;;;;;8.27;7.97;;;;;;;-143.83;100.00;62900.06;5113588;27;20055;-66
2022/08/03 04:40:23;;;;;;;8.55;8.15;;;;;;;-143.83;100.00;62900.06;5108973;28;20237;-65
2022/08/03 04:42:52;;;;;;;9.10;8.70;;;;;;;-143.83;100.00;62900.06;5105997;27;20039;-66
2022/08/03 04:45:19;;;;;;;8.40;8.00;;;;;;;-143.83;100.00;62900.06;5114212;28;20023;-65
2022/08/03 04:47:46;;;;;;;8.70;8.30;;;;;;;-143.83;100.00;62900.06;5111576;27;20508;-65
2022/08/03 04:50:12;;;;;;;8.10;7.80;;;;;;;-143.83;100.00;62900.06;5099927;27;20122;-66
2022/08/03 04:52:38;;;;;;;8.18;7.88;;;;;;;-143.83;100.00;62900.06;5106672;28;20100;-65
2022/08/03 04:55:04;;;;;;;8.10;7.80;;;;;;;-143.83;100.00;62900.06;5113208;27;20028;-65
2022/08/03 04:57:30;;;;;;;8.63;8.23;;;;;;;-143.83;100.00;62900.06;5111020;27;20072;-65
2022/08/03 04:59:55;;;;;;;8.55;8.15;;;;;;;-143.83;100.00;62900.06;5107114;27;20035;-65
2022/08/03 05:02:22;;;;;;;8.60;8.20;;;;;;;-143.83;100.00;62900.06;5111511;27;20031;-65
2022/08/03 05:04:48;;;;;;;8.60;8.20;;;;;;;-143.83;100.00;62900.06;5113095;27;20023;-65
2022/08/03 05:07:15;;;;;;;8.27;7.97;;;;;;;-143.83;100.00;62900.06;5112305;27;20110;-66
2022/08/03 05:09:41;;;;;;;8.50;8.10;;;;;;;-143.83;100.00;62900.06;5102266;28;20118;-65
2022/08/03 05:12:06;;;;;;;8.52;8.13;;;;;;;-143.83;100.00;62900.06;5112355;27;20098;-66
2022/08/03 05:14:34;;;;;;;8.55;8.15;;;;;;;-143.83;100.00;62900.06;5112225;28;20027;-66
2022/08/03 05:17:00;;;;;;;8.73;8.32;;;;;;;-143.83;100.00;62900.06;5112101;28;20020;-65
2022/08/03 05:19:25;;;;;;;8.73;8.32;;;;;;;-143.83;100.00;62900.06;5112164;28;20042;-64
2022/08/03 05:21:51;;;;;;;8.15;7.85;;;;;;;-143.83;100.00;62900.06;5111772;28;20031;-65
2022/08/03 05:24:16;;;;;;;8.50;8.10;;;;;;;-143.83;100.00;62900.06;5111677;28;20028;-64
2022/08/03 05:26:42;;;;;;;8.68;8.27;;;;;;;-143.83;100.00;62900.06;5102686;27;20114;-64
2022/08/03 05:29:07;;;;;;;9.00;8.60;;;;;;;-143.83;100.00;62900.06;5113901;27;20034;-64
2022/08/03 05:31:33;;;;;;;8.57;8.18;;;;;;;-143.83;100.00;62900.06;5113022;28;20368;-64
2022/08/03 05:33:59;;;;;;;8.30;8.00;;;;;;;-143.83;100.00;62900.06;5112984;28;20031;-64
2022/08/03 05:36:24;;;;;;;8.35;8.00;;;;;;;-143.83;100.00;62900.06;5102975;28;20027;-64
2022/08/03 05:38:50;;;;;;;8.40;8.00;;;;;;;-143.83;100.00;62900.06;5113344;28;20024;-64
2022/08/03 05:41:15;;;;;;;8.60;8.20;;;;;;;-143.83;100.00;62900.06;5113009;28;20027;-64
2022/08/03 05:43:41;;;;;;;8.75;8.35;;;;;;;-143.83;100.00;62900.06;5111343;28;20376;-66
2022/08/03 05:46:06;;;;;;;8.20;7.90;;;;;;;-143.83;100.00;62900.06;5113396;27;20038;-66
2022/08/03 05:48:32;;;;;;;8.60;8.20;;;;;;;-143.83;100.00;62900.06;5113282;27;20112;-66
2022/08/03 05:50:57;;;;;;;8.30;8.00;;;;;;;-143.83;100.00;62900.06;5111914;28;20023;-66
2022/08/03 05:53:23;;;;;;;8.63;8.23;;;;;;;-143.83;100.00;62900.06;5112245;28;20085;-66
2022/08/03 05:55:48;;;;;;;8.32;8.00;;;;;;;-143.83;100.00;62900.06;5112570;28;20028;-66
2022/08/03 05:58:14;;;;;;;8.00;7.70;;;;;;;-143.83;100.00;62900.06;5113056;28;20031;-66
2022/08/03 06:00:39;;;;;;;8.25;7.95;;;;;;;-143.83;100.00;62900.06;5111083;28;20059;-67
2022/08/03 06:03:05;;;;;;;8.30;7.95;;;;;;;-143.83;100.00;62900.06;5120215;27;20034;-67
2022/08/03 06:05:31;;;;;;;8.20;7.90;;;;;;;-143.83;100.00;62900.06;5117005;27;20054;-66
2022/08/03 06:07:56;;;;;;;8.60;8.20;;;;;;;-143.83;100.00;62900.06;5112029;28;20066;-66
2022/08/03 06:10:22;;;;;;;8.60;8.20;;;;;;;-143.83;100.00;62900.06;5112854;28;20047;-66
2022/08/03 06:12:49;;;;;;;8.50;8.10;;;;;;;-143.83;100.00;62900.06;5112369;28;20043;-66
2022/08/03 06:15:15;;;;;;;8.23;7.93;;;;;;;-143.83;100.00;62900.06;5112702;28;20038;-66
2022/08/03 06:17:48;;;;;;;8.52;8.13;;;;;;;-143.83;100.00;62900.06;5111558;28;20118;-65
2022/08/03 06:20:16;;;;;;;8.10;7.80;;;;;;;-143.83;100.00;62900.06;5112244;28;20034;-66
2022/08/03 06:22:42;;;;;;;8.60;8.20;;;;;;;-143.83;100.00;62900.06;5109558;28;20027;-65
2022/08/03 06:25:08;;;;;;;7.95;7.65;;;;;;;-143.83;100.00;62900.06;5111998;28;20832;-66
2022/08/03 06:27:33;;;;;;;8.20;7.90;;;;;;;-143.83;100.00;62900.06;5112008;28;20031;-66
2022/08/03 06:29:59;;;;;;;8.50;8.10;;;;;;;-143.83;100.00;62900.06;5111836;28;20092;-65
2022/08/03 06:32:24;;;;;;;8.60;8.20;;;;;;;-143.83;100.00;62900.06;5111386;28;20024;-65
2022/08/03 06:34:50;;;;;;;7.85;7.55;;;;;;;-143.83;100.00;62900.06;5110764;28;20024;-67
2022/08/03 06:37:15;;;;;;;8.20;7.90;;;;;;;-143.83;100.00;62900.06;5098420;28;20804;-66
2022/08/03 06:39:41;;;;;;;8.07;7.78;;;;;;;-143.83;100.00;62900.06;5111552;28;20046;-66
2022/08/03 06:42:06;;;;;;;8.00;7.70;;;;;;;-143.83;100.00;62900.06;5110936;28;20048;-65
2022/08/03 06:44:32;;;;;;;7.97;7.68;;;;;;;-143.83;100.00;62900.06;5111655;28;20030;-66
2022/08/03 06:46:57;;;;;;;7.70;7.40;;;;;;;-143.83;100.00;62900.06;5111806;28;20019;-66
2022/08/03 06:49:23;;;;;;;8.10;7.80;;;;;;;-143.83;100.00;62900.06;5111989;28;20033;-67
2022/08/03 06:51:51;;;;;;;8.13;7.82;;;;;;;-143.83;100.00;62900.06;5107400;28;20028;-67
2022/08/03 06:54:17;;;;;;;8.00;7.70;;;;;;;-143.83;100.00;62900.06;5106274;28;20483;-66
2022/08/03 06:56:42;;;;;;;8.20;7.90;;;;;;;-143.83;100.00;62900.06;5111930;28;20024;-66
2022/08/03 06:59:08;;;;;;;8.50;8.10;;;;;;;-143.83;100.00;62900.06;5117550;28;20080;-66
2022/08/03 07:01:33;;;;;;;8.20;7.90;;;;;;;-143.83;100.00;62900.06;5116139;27;20034;-66
2022/08/03 07:04:00;;;;;;;8.10;7.80;;;;;;;-143.83;100.00;62900.06;5116008;28;20380;-66
2022/08/03 07:06:25;;;;;;;8.30;7.97;;;;;;;-143.83;100.00;62900.06;5116037;28;20451;-66
2022/08/03 07:08:51;;;;;;;8.52;8.13;;;;;;;-143.83;100.00;62900.06;5114893;28;20057;-66
2022/08/03 07:11:16;;;;;;;8.68;8.27;;;;;;;-143.83;100.00;62900.06;5103411;28;20161;-65
2022/08/03 07:13:42;;;;;;;8.27;7.97;;;;;;;-143.83;100.00;62900.06;5115902;28;20024;-66
2022/08/03 07:16:08;;;;;;;8.68;8.27;;;;;;;-143.83;100.00;62900.06;5115511;28;20771;-65
2022/08/03 07:18:37;;;;;;;8.52;8.13;;;;;;;-143.83;100.00;62900.06;5107330;28;20471;-66
2022/08/03 07:21:03;;;;;;;8.30;7.95;;;;;;;-143.83;100.00;62900.06;5114907;28;20031;-67
2022/08/03 07:23:28;;;;;;;8.50;8.10;;;;;;;-143.83;100.00;62900.06;5115653;28;20379;-67
2022/08/03 07:25:54;;;;;;;8.00;7.70;;;;;;;-143.83;100.00;62900.06;5114649;28;20527;-66
2022/08/03 07:28:19;;;;;;;8.18;7.88;;;;;;;-143.83;100.00;62900.06;5116075;28;20031;-66
2022/08/03 07:30:45;;;;;;;8.38;8.00;;;;;;;-143.83;100.00;62900.06;5115363;28;20015;-66
2022/08/03 07:33:10;;;;;;;8.60;8.20;;;;;;;-143.83;100.00;62900.06;5115531;28;20062;-65
2022/08/03 07:35:36;;;;;;;8.55;8.15;;;;;;;-143.83;100.00;62900.06;5115458;28;20019;-66
2022/08/03 07:38:02;;;;;;;8.50;8.10;;;;;;;-143.83;100.00;62900.06;5115298;28;20023;-66
2022/08/03 07:40:27;;;;;;;8.10;7.80;;;;;;;-143.83;100.00;62900.06;5115404;28;20020;-66
2022/08/03 07:42:53;;;;;;;7.85;7.55;;;;;;;-143.83;100.00;62900.06;5114069;28;20566;-65
2022/08/03 07:45:20;;;;;;;8.30;8.00;;;;;;;-143.83;100.00;62900.06;5114791;28;20036;-66
2022/08/03 07:47:45;;;;;;;8.13;7.82;;;;;;;-143.83;100.00;62900.06;5114832;28;20084;-66
2022/08/03 07:50:11;;;;;;;8.05;7.75;;;;;;;-143.83;100.00;62900.06;5111402;28;20024;-66
2022/08/03 07:52:48;;;;;;;8.10;7.80;;;;;;;-143.83;100.00;62900.06;5115245;28;20027;-66
2022/08/03 07:55:19;;;;;;;8.20;7.90;;;;;;;-143.83;100.00;62900.06;5119612;27;20023;-67
2022/08/03 07:57:45;;;;;;;8.20;7.90;;;;;;;-143.83;100.00;62900.06;5119180;27;20031;-66
2022/08/03 08:00:16;;;;;;;8.38;8.00;;;;;;;-143.83;100.00;62900.06;5113749;28;20394;-66
2022/08/03 08:02:42;;;;;;;8.60;8.20;;;;;;;-143.83;100.00;62900.06;5114445;28;20032;-66
2022/08/03 08:05:09;;;;;;;8.98;8.57;;;;;;;-143.83;100.00;62900.06;5114775;28;20027;-65
2022/08/03 08:07:36;;;;;;;8.93;8.52;;;;;;;-143.83;100.00;62900.06;5114714;28;20031;-66
2022/08/03 08:10:03;;;;;;;8.18;7.88;;;;;;;-143.83;100.00;62900.06;5114978;28;20023;-66
2022/08/03 08:12:29;;;;;;;8.50;8.10;;;;;;;-143.83;100.00;62900.06;5114250;28;20043;-67
2022/08/03 08:14:54;;;;;;;8.55;8.15;;;;;;;-143.83;100.00;62900.06;5105678;28;20016;-66
2022/08/03 08:17:20;;;;;;;8.63;8.23;;;;;;;-143.83;100.00;62900.06;5113098;28;20038;-66
2022/08/03 08:19:45;;;;;;;8.13;7.82;;;;;;;-143.83;100.00;62900.06;5101375;28;20036;-65
2022/08/03 08:22:11;;;;;;;8.60;8.20;;;;;;;-143.83;100.00;62900.06;5114152;28;20028;-65
2022/08/03 08:24:36;;;;;;;8.32;7.95;;;;;;;-143.83;100.00;62900.06;5114475;28;20027;-66
2022/08/03 08:27:02;;;;;;;8.75;8.35;;;;;;;-143.83;100.00;62900.06;5114551;28;20027;-66
2022/08/03 08:29:27;;;;;;;8.05;7.75;;;;;;;-143.83;100.00;62900.06;5114634;28;20027;-66
2022/08/03 08:31:53;;;;;;;8.23;7.93;;;;;;;-143.83;100.00;62900.06;5113202;28;20058;-66
2022/08/03 08:34:18;;;;;;;8.40;8.00;;;;;;;-143.83;100.00;62900.06;5113540;28;20039;-66
2022/08/03 08:36:44;;;;;;;8.77;8.38;;;;;;;-143.83;100.00;62900.06;5113078;28;20082;-66
2022/08/03 08:39:09;;;;;;;8.43;8.02;;;;;;;-143.83;100.00;62900.06;5114157;28;20028;-66
2022/08/03 08:41:35;;;;;;;8.50;8.10;;;;;;;-143.83;100.00;62900.06;5114546;28;20076;-65
2022/08/03 08:44:01;;;;;;;8.50;8.10;;;;;;;-143.83;100.00;62900.06;5113958;28;20524;-67
2022/08/03 08:46:31;;;;;;;8.95;8.55;;;;;;;-143.83;100.00;62900.06;5114130;28;20050;-66
2022/08/03 08:48:58;;;;;;;8.00;7.70;;;;;;;-143.83;100.00;62900.06;5114142;28;20023;-66
2022/08/03 08:51:28;;;;;;;8.07;7.78;;;;;;;-143.83;100.00;62900.06;5113280;28;20027;-66
2022/08/03 08:53:56;;;;;;;8.02;7.72;;;;;;;-143.83;100.00;62900.06;5113818;28;20542;-67
2022/08/03 08:56:24;;;;;;;8.55;8.15;;;;;;;-143.83;100.00;62900.06;5113975;28;20077;-66
2022/08/03 08:58:58;;;;;;;8.60;8.20;;;;;;;-143.83;100.00;62900.06;5113872;28;20027;-66
2022/08/03 09:01:24;;;;;;;7.85;7.55;;;;;;;-143.83;100.00;62900.06;5114070;28;20020;-66
2022/08/03 09:03:50;;;;;;;8.10;7.80;;;;;;;-143.83;100.00;62900.06;5113809;28;20027;-66
2022/08/03 09:06:16;;;;;;;8.10;7.80;;;;;;;-143.83;100.00;62900.06;5113889;28;20088;-66
2022/08/03 09:08:42;;;;;;;8.55;8.15;;;;;;;-143.83;100.00;62900.06;5113266;28;20487;-66
2022/08/03 09:11:08;;;;;;;8.82;8.43;;;;;;;-143.83;100.00;62900.06;5104442;28;20080;-66
2022/08/03 09:13:34;;;;;;;8.88;8.48;;;;;;;-143.83;100.00;62900.06;5112947;28;20027;-66
2022/08/03 09:16:11;;;;;;;8.60;8.20;;;;;;;-143.83;100.00;62900.06;5113501;28;20023;-67
2022/08/03 09:18:37;;;;;;;8.07;7.78;;;;;;;-143.83;100.00;62900.06;5113550;28;20032;-66
2022/08/03 09:21:17;;;;;;;8.60;8.20;;;;;;;-143.83;100.00;62900.06;5113435;28;20127;-65
2022/08/03 09:23:45;;;;;;;8.35;7.95;;;;;;;-143.83;100.00;62900.06;5104564;28;20142;-66
2022/08/03 09:26:11;;;;;;;8.40;8.00;;;;;;;-143.83;100.00;62900.06;5112415;28;20030;-66
2022/08/03 09:28:36;;;;;;;7.95;7.65;;;;;;;-143.83;100.00;62900.06;5113356;28;20023;-66
2022/08/03 09:31:02;;;;;;;8.30;7.95;;;;;;;-143.83;100.00;62900.06;5113094;28;20018;-67
2022/08/03 09:33:28;;;;;;;8.80;8.40;;;;;;;-143.83;100.00;62900.06;5113343;28;20145;-67
2022/08/03 09:35:55;;;;;;;8.45;8.05;;;;;;;-143.83;100.00;62900.06;5113185;28;20031;-66
2022/08/03 09:38:27;;;;;;;8.43;8.02;;;;;;;-143.83;100.00;62900.06;5113016;28;20024;-66
2022/08/03 09:40:54;;;;;;;8.60;8.20;;;;;;;-143.83;100.00;62900.06;5112573;28;20094;-67
2022/08/03 09:43:20;;;;;;;8.70;8.30;;;;;;;-143.83;100.00;62900.06;5111500;28;20044;-66
2022/08/03 09:45:46;;;;;;;8.77;8.38;;;;;;;-143.83;100.00;62900.06;5102097;28;20100;-66
2022/08/03 09:48:22;;;;;;;8.40;8.00;;;;;;;-143.83;100.00;62900.06;5110382;28;20442;-67
2022/08/03 09:50:53;;;;;;;8.27;7.90;;;;;;;-143.83;100.00;62900.06;5112657;28;20566;-66
2022/08/03 09:53:19;;;;;;;8.10;7.80;;;;;;;-143.83;100.00;62900.06;5112785;28;20024;-66
2022/08/03 09:55:55;;;;;;;8.10;7.80;;;;;;;-143.83;100.00;62900.06;5112521;28;20608;-67
2022/08/03 09:58:22;;;;;;;8.40;8.00;;;;;;;-143.83;100.00;62900.06;5099021;28;20031;-67
2022/08/03 10:01:07;;;;;;;8.07;7.78;;;;;;;-143.83;100.00;62900.06;5105575;28;20471;-66
2022/08/03 10:03:36;;;;;;;8.10;7.80;;;;;;;-143.83;100.00;62900.06;5107027;28;20691;-65
2022/08/03 10:06:18;;;;;;;8.35;7.97;;;;;;;-143.83;100.00;62900.06;5112979;28;20047;-66
2022/08/03 10:09:05;;;;;;;8.43;8.02;;;;;;;-143.83;100.00;62900.06;5102886;28;20038;-67
2022/08/03 10:11:33;;;;;;;8.60;8.20;;;;;;;-143.83;100.00;62900.06;5111979;28;20034;-66
2022/08/03 10:14:03;;;;;;;8.68;8.27;;;;;;;-143.83;100.00;62900.06;5112432;28;20027;-66
2022/08/03 10:16:36;;;;;;;8.23;7.90;;;;;;;-143.83;100.00;62900.06;5111475;28;20030;-65
2022/08/03 10:19:07;;;;;;;9.00;8.60;;;;;;;-143.83;100.00;62900.06;5112088;28;20158;-67
2022/08/03 10:21:34;;;;;;;8.25;7.90;;;;;;;-143.83;100.00;62900.06;5110471;28;20355;-67
2022/08/03 10:24:06;;;;;;;8.50;8.10;;;;;;;-143.83;100.00;62900.06;5111914;28;20506;-67
2022/08/03 10:26:34;;;;;;;8.32;7.95;;;;;;;-143.83;100.00;62900.06;5112086;28;20032;-66
2022/08/03 10:29:06;;;;;;;8.15;7.85;;;;;;;-143.83;100.00;62900.06;5111980;28;20031;-67
2022/08/03 10:31:37;;;;;;;8.15;7.82;;;;;;;-143.83;100.00;62900.06;5112126;28;20016;-65
2022/08/03 10:34:05;;;;;;;8.25;7.95;;;;;;;-143.83;100.00;62900.06;5111143;28;20062;-66
2022/08/03 10:36:33;;;;;;;8.32;7.93;;;;;;;-143.83;100.00;62900.06;5111686;28;20414;-66
2022/08/03 10:39:01;;;;;;;8.77;8.38;;;;;;;-143.83;100.00;62900.06;5111579;28;20106;-66
2022/08/03 10:41:35;;;;;;;8.68;8.27;;;;;;;-143.83;100.00;62900.06;5111481;28;20035;-66
2022/08/03 10:44:07;;;;;;;8.40;8.02;;;;;;;-143.83;100.00;62900.06;5111208;28;20490;-66
2022/08/03 10:46:35;;;;;;;8.45;8.05;;;;;;;-143.83;100.00;62900.06;5111553;28;20557;-67
2022/08/03 10:49:01;;;;;;;8.13;7.82;;;;;;;-143.83;100.00;62900.06;5112168;28;20030;-66
2022/08/03 10:51:30;;;;;;;8.10;7.80;;;;;;;-143.83;100.00;62900.06;5115186;28;20039;-67
2022/08/03 10:53:57;;;;;;;8.35;7.95;;;;;;;-143.83;100.00;62900.06;5120955;27;20285;-66
2022/08/03 10:59:54;;;;;;;8.05;7.75;;;;;;;-143.83;100.00;62900.06;5110909;28;20100;-66
2022/08/03 11:02:20;;;;;;;;;;;;;;;-143.83;100.00;62900.06;5111815;28;20023;-66
2022/08/03 11:04:45;;;;;;;8.68;8.27;;;;;;;-143.83;100.00;62900.06;5102023;28;19915;-65
2022/08/03 11:07:22;;;;;;;8.32;7.93;;;;;;;-143.83;100.00;62900.06;5108692;28;20042;-66
2022/08/03 11:09:52;;;;;;;8.10;7.80;;;;;;;-143.83;100.00;62900.06;5125512;28;20050;-65
2022/08/03 11:12:20;;;;;;;8.32;8.00;;;;;;;-143.83;100.00;62900.06;5097973;28;20724;-66
2022/08/03 11:14:47;;;;;;;8.52;8.13;;;;;;;-143.83;100.00;62900.06;5111741;28;20042;-66
2022/08/03 11:17:13;;;;;;;8.48;8.07;;;;;;;-143.83;100.00;62900.06;5097645;28;20024;-66
2022/08/03 11:19:47;;;;;;;8.02;7.72;;;;;;;-143.83;100.00;62900.06;5111294;28;20355;-66